Time;durP1;ratioP1;P1;durP2;ratioP2;P2;SDS_P1;SDS_P2;PMS_P1;PMS_P2;Temp;Humidity;BMP_temperature;BMP_pressure;BME280_temperature;BME280_humidity;BME280_pressure;Samples;Min_cycle;Max_cycle;Signal;HPM_P1;HPM_P2
2021/12/06 00:01:03;;;;;;;30.33;18.23;;;5.00;99.90;;;;;;5078788;28;20032;-78
2021/12/06 00:03:52;;;;;;;26.33;17.25;;;5.00;99.90;;;;;;5106363;28;20389;-77
2021/12/06 00:06:21;;;;;;;26.27;17.65;;;4.90;99.90;;;;;;5074994;28;20028;-77
2021/12/06 00:08:48;;;;;;;;;;;4.90;99.90;;;;;;5103304;28;20024;-77
2021/12/06 00:11:14;;;;;;;38.92;20.95;;;4.90;99.90;;;;;;5093075;28;19914;-77
2021/12/06 00:13:45;;;;;;;38.63;22.30;;;4.90;99.90;;;;;;5067235;28;20492;-78
2021/12/06 00:16:18;;;;;;;29.48;19.02;;;4.90;99.90;;;;;;5095091;28;20388;-78
2021/12/06 00:18:44;;;;;;;27.25;17.38;;;4.90;99.90;;;;;;5086121;28;20027;-77
2021/12/06 00:21:10;;;;;;;29.42;17.30;;;4.80;99.90;;;;;;5074980;28;20089;-77
2021/12/06 00:23:37;;;;;;;28.85;17.60;;;4.80;99.90;;;;;;5102481;28;20032;-78
2021/12/06 00:26:04;;;;;;;23.67;16.75;;;4.90;99.90;;;;;;5113583;28;20028;-77
2021/12/06 00:28:30;;;;;;;25.83;17.17;;;4.90;99.90;;;;;;5104657;28;20388;-77
2021/12/06 00:30:56;;;;;;;35.10;20.20;;;4.90;99.90;;;;;;5058512;28;20496;-77
2021/12/06 00:33:24;;;;;;;27.45;17.55;;;4.90;99.90;;;;;;5099366;28;20106;-77
2021/12/06 00:35:50;;;;;;;22.65;17.00;;;4.90;99.90;;;;;;5078274;28;20076;-77
2021/12/06 00:38:15;;;;;;;26.50;17.05;;;4.90;99.90;;;;;;5078022;28;20361;-78
2021/12/06 00:40:46;;;;;;;24.00;16.67;;;4.90;99.90;;;;;;5094895;28;20084;-77
2021/12/06 00:43:12;;;;;;;22.30;15.85;;;4.90;99.90;;;;;;5085806;28;20071;-80
2021/12/06 00:45:38;;;;;;;25.10;17.60;;;4.90;99.90;;;;;;5092790;28;20073;-80
2021/12/06 00:48:05;;;;;;;23.92;17.13;;;4.90;99.90;;;;;;5085489;28;20035;-80
2021/12/06 00:50:33;;;;;;;27.33;17.25;;;4.90;99.90;;;;;;5094864;28;20027;-80
2021/12/06 00:52:59;;;;;;;26.88;17.25;;;4.90;99.90;;;;;;5094665;28;20403;-80
2021/12/06 00:55:25;;;;;;;24.30;17.23;;;4.90;99.90;;;;;;5113338;28;20467;-80
2021/12/06 00:57:54;;;;;;;23.70;17.38;;;4.90;99.90;;;;;;5077179;28;20035;-80
2021/12/06 01:00:25;;;;;;;;;;;4.90;99.90;;;;;;5113624;28;20051;-81
2021/12/06 01:02:52;;;;;;;24.50;16.50;;;4.90;99.90;;;;;;5112887;28;19927;-81
2021/12/06 01:05:22;;;;;;;22.80;16.00;;;4.90;99.90;;;;;;5078221;28;20035;-81
2021/12/06 01:07:48;;;;;;;24.48;16.42;;;4.90;99.90;;;;;;5112641;28;20380;-81
2021/12/06 01:10:14;;;;;;;32.42;18.48;;;4.90;99.90;;;;;;5077579;28;20026;-80
2021/12/06 01:12:40;;;;;;;29.90;19.60;;;4.90;99.90;;;;;;5112331;28;20543;-80
2021/12/06 01:15:07;;;;;;;23.63;16.40;;;4.90;99.90;;;;;;5112660;28;20035;-80
2021/12/06 01:17:33;;;;;;;24.58;17.08;;;4.90;99.90;;;;;;5111894;28;20098;-80
2021/12/06 01:19:59;;;;;;;26.75;16.65;;;4.80;99.90;;;;;;5074071;28;20031;-80
2021/12/06 01:22:48;;;;;;;24.70;17.58;;;4.90;99.90;;;;;;5078499;28;20032;-80
2021/12/06 01:25:40;;;;;;;25.63;18.80;;;4.90;99.90;;;;;;5081004;28;20059;-80
2021/12/06 01:41:30;;;;;;;29.65;18.92;;;4.80;99.90;;;;;;5101353;28;20038;-80
2021/12/06 01:44:22;;;;;;;33.33;19.55;;;4.80;99.90;;;;;;5098005;28;20036;-80
2021/12/06 01:46:52;;;;;;;25.55;17.98;;;4.80;99.90;;;;;;5086576;28;20482;-80
2021/12/06 01:49:20;;;;;;;24.08;16.92;;;4.80;99.90;;;;;;5115812;28;20043;-80
2021/12/06 01:51:48;;;;;;;24.20;14.93;;;4.80;99.90;;;;;;5115937;28;20027;-80
2021/12/06 01:54:15;;;;;;;23.08;15.63;;;4.80;99.90;;;;;;5079879;28;20063;-80
2021/12/06 01:56:42;;;;;;;23.73;16.95;;;4.70;99.90;;;;;;5115773;28;20106;-80
2021/12/06 01:59:08;;;;;;;25.88;18.25;;;4.80;99.90;;;;;;5115873;28;20024;-81
2021/12/06 02:01:35;;;;;;;22.23;15.60;;;4.70;99.90;;;;;;5080595;28;20036;-81
2021/12/06 02:04:03;;;;;;;22.08;15.60;;;4.70;99.90;;;;;;5096605;28;20426;-80
2021/12/06 02:06:28;;;;;;;28.45;16.15;;;4.70;99.90;;;;;;5078990;28;20397;-80
2021/12/06 02:08:54;;;;;;;23.52;16.33;;;4.70;99.90;;;;;;5077337;28;20039;-80
2021/12/06 02:11:24;;;;;;;26.10;16.23;;;4.80;99.90;;;;;;5095514;28;20468;-80
2021/12/06 02:14:03;;;;;;;25.58;16.52;;;4.80;99.90;;;;;;5088697;28;20024;-81
2021/12/06 02:16:43;;;;;;;27.00;17.05;;;4.80;99.90;;;;;;5078767;28;20893;-80
2021/12/06 02:19:09;;;;;;;25.95;18.45;;;4.80;99.90;;;;;;5079176;28;20127;-80
2021/12/06 02:21:40;;;;;;;22.83;16.38;;;4.80;99.90;;;;;;5093743;28;20024;-81
2021/12/06 02:24:09;;;;;;;22.25;16.08;;;4.70;99.90;;;;;;5097110;28;20028;-80
2021/12/06 02:26:39;;;;;;;21.98;16.23;;;4.70;99.90;;;;;;5097301;28;20027;-80
2021/12/06 02:29:04;;;;;;;;;;;4.70;99.90;;;;;;5086722;28;20074;-80
2021/12/06 02:31:30;;;;;;;24.73;15.13;;;4.80;99.90;;;;;;5076753;28;20489;-80
2021/12/06 02:33:56;;;;;;;20.63;15.85;;;4.70;99.90;;;;;;5076836;28;20036;-80
2021/12/06 02:36:22;;;;;;;23.92;16.83;;;4.70;99.90;;;;;;5081392;28;20027;-80
2021/12/06 02:38:48;;;;;;;24.50;18.45;;;4.70;99.90;;;;;;5096707;28;20031;-80
2021/12/06 02:41:15;;;;;;;30.70;20.25;;;4.80;99.90;;;;;;5062619;28;20457;-81
2021/12/06 02:43:42;;;;;;;26.63;18.60;;;4.70;99.90;;;;;;5091494;28;20496;-80
2021/12/06 02:46:08;;;;;;;27.38;17.02;;;4.70;99.90;;;;;;5080358;28;20472;-80
2021/12/06 02:48:34;;;;;;;27.13;19.25;;;4.70;99.90;;;;;;5114713;28;20433;-80
2021/12/06 02:51:04;;;;;;;25.60;16.92;;;4.70;99.90;;;;;;5096643;28;20032;-80
2021/12/06 02:53:32;;;;;;;27.10;19.58;;;4.70;99.90;;;;;;5083887;28;20098;-80
2021/12/06 02:56:04;;;;;;;36.53;22.95;;;4.70;99.90;;;;;;5086868;28;20016;-80
2021/12/06 03:01:07;;;;;;;26.50;17.60;;;4.70;99.90;;;;;;5111045;28;20024;-80
2021/12/06 03:03:34;;;;;;;23.90;18.23;;;4.60;99.90;;;;;;5102656;28;20812;-80
2021/12/06 03:06:00;;;;;;;29.88;19.75;;;4.70;99.90;;;;;;5114122;28;20447;-80
2021/12/06 03:08:41;;;;;;;26.60;17.67;;;4.70;99.90;;;;;;5113816;28;20131;-80
2021/12/06 03:11:10;;;;;;;26.67;19.10;;;4.70;99.90;;;;;;5094720;28;20072;-80
2021/12/06 03:13:36;;;;;;;27.92;18.42;;;4.70;99.90;;;;;;5095870;28;20118;-80
2021/12/06 03:16:03;;;;;;;34.42;22.75;;;4.70;99.90;;;;;;5096180;28;20510;-80
2021/12/06 03:18:28;;;;;;;29.08;19.23;;;4.60;99.90;;;;;;5094481;28;20131;-81
2021/12/06 03:20:54;;;;;;;35.10;22.02;;;4.60;99.90;;;;;;5075284;28;20118;-80
2021/12/06 03:23:20;;;;;;;26.85;19.13;;;4.60;99.90;;;;;;5075531;28;20032;-80
2021/12/06 03:25:45;;;;;;;26.38;18.48;;;4.60;99.90;;;;;;5085913;28;20123;-80
2021/12/06 03:28:11;;;;;;;30.67;19.33;;;4.60;99.90;;;;;;5095823;28;20042;-80
2021/12/06 03:30:37;;;;;;;33.45;20.13;;;4.60;99.90;;;;;;5078589;28;20047;-80
2021/12/06 03:33:03;;;;;;;38.03;23.48;;;4.60;99.90;;;;;;5095545;28;20036;-80
2021/12/06 03:35:29;;;;;;;30.65;21.27;;;4.60;99.90;;;;;;5095598;28;20036;-80
2021/12/06 03:37:54;;;;;;;31.98;21.38;;;4.60;99.90;;;;;;5078732;28;20027;-80
2021/12/06 03:40:20;;;;;;;27.75;20.27;;;4.60;99.90;;;;;;5061831;28;20507;-81
2021/12/06 03:42:46;;;;;;;30.58;19.45;;;4.60;99.90;;;;;;5095435;28;20032;-80
2021/12/06 03:45:12;;;;;;;32.42;21.05;;;4.60;99.90;;;;;;5113277;28;20076;-80
2021/12/06 03:47:38;;;;;;;30.42;20.33;;;4.60;99.90;;;;;;5095148;28;20503;-80
2021/12/06 03:50:06;;;;;;;31.63;21.33;;;4.60;99.90;;;;;;5113457;28;20157;-81
2021/12/06 03:52:32;;;;;;;28.77;19.63;;;4.60;99.90;;;;;;5095281;28;20522;-80
2021/12/06 03:54:58;;;;;;;28.25;18.90;;;4.60;99.90;;;;;;5061617;28;20019;-80
2021/12/06 03:57:24;;;;;;;27.63;18.90;;;4.60;99.90;;;;;;5080359;28;20033;-80
2021/12/06 03:59:52;;;;;;;34.47;20.77;;;4.60;99.90;;;;;;5094033;28;20115;-80
2021/12/06 04:02:23;;;;;;;28.08;19.65;;;4.60;99.90;;;;;;5077833;28;20035;-81
2021/12/06 04:04:48;;;;;;;34.55;22.58;;;4.60;99.90;;;;;;5094236;28;20063;-80
2021/12/06 04:07:14;;;;;;;32.10;21.33;;;4.50;99.90;;;;;;5094796;28;20046;-80
2021/12/06 04:09:40;;;;;;;31.67;20.08;;;4.60;99.90;;;;;;5082838;28;20028;-80
2021/12/06 04:12:09;;;;;;;29.00;19.33;;;4.50;99.90;;;;;;5113143;28;20111;-80
2021/12/06 04:14:35;;;;;;;24.23;18.17;;;4.60;99.90;;;;;;5094739;28;20031;-80
2021/12/06 04:17:01;;;;;;;34.63;19.13;;;4.60;99.90;;;;;;5078233;28;20201;-80
2021/12/06 04:19:26;;;;;;;40.72;23.70;;;4.50;99.90;;;;;;5061195;28;20154;-80
2021/12/06 04:21:52;;;;;;;34.80;20.45;;;4.50;99.90;;;;;;5044051;28;20040;-80
2021/12/06 04:24:18;;;;;;;25.20;18.85;;;4.50;99.90;;;;;;5103162;28;20027;-80
2021/12/06 04:26:44;;;;;;;30.88;19.55;;;4.50;99.90;;;;;;5076504;28;20097;-80
2021/12/06 04:29:11;;;;;;;25.40;14.82;;;4.50;99.90;;;;;;5083552;28;20122;-80
2021/12/06 04:31:42;;;;;;;23.75;16.98;;;4.40;99.90;;;;;;5077748;28;20016;-80
2021/12/06 04:34:08;;;;;;;24.67;17.85;;;4.40;99.90;;;;;;5094906;28;20059;-80
2021/12/06 04:36:34;;;;;;;24.50;17.88;;;4.40;99.90;;;;;;5078070;28;20070;-81
2021/12/06 04:39:00;;;;;;;24.23;17.88;;;4.40;99.90;;;;;;5092473;28;20020;-80
2021/12/06 04:41:25;;;;;;;27.77;18.75;;;4.30;99.90;;;;;;5109716;28;20024;-80
2021/12/06 04:43:51;;;;;;;27.17;19.45;;;4.30;99.90;;;;;;5089544;28;20144;-80
2021/12/06 04:46:17;;;;;;;23.88;17.10;;;4.20;99.90;;;;;;5056758;28;20036;-80
2021/12/06 04:48:43;;;;;;;26.50;18.23;;;4.20;99.90;;;;;;5097122;28;20533;-80
2021/12/06 04:51:09;;;;;;;26.27;17.70;;;4.20;99.90;;;;;;5091540;28;20081;-80
2021/12/06 04:53:36;;;;;;;24.98;16.20;;;4.10;99.90;;;;;;5073254;28;20127;-80
2021/12/06 04:56:11;;;;;;;21.05;15.50;;;4.00;99.90;;;;;;5102048;28;20031;-80
2021/12/06 04:58:45;;;;;;;20.20;15.80;;;4.00;99.90;;;;;;5077740;28;20511;-80
2021/12/06 05:01:16;;;;;;;28.80;19.40;;;3.90;99.90;;;;;;5095638;28;20119;-80
2021/12/06 05:03:41;;;;;;;25.75;18.30;;;3.90;99.90;;;;;;5084600;28;20031;-80
2021/12/06 05:06:15;;;;;;;26.27;18.17;;;3.90;99.90;;;;;;5096682;28;20043;-80
2021/12/06 05:08:48;;;;;;;34.25;20.15;;;3.80;99.90;;;;;;5114468;28;20111;-80
2021/12/06 05:11:14;;;;;;;25.85;17.52;;;3.80;99.90;;;;;;5095509;28;20016;-80
2021/12/06 05:13:44;;;;;;;25.05;16.55;;;3.80;99.90;;;;;;5084570;28;20098;-80
2021/12/06 05:16:10;;;;;;;25.42;16.63;;;3.70;99.90;;;;;;5116495;28;20091;-80
2021/12/06 05:18:36;;;;;;;23.27;16.35;;;3.70;99.90;;;;;;5116384;28;20028;-80
2021/12/06 05:21:03;;;;;;;22.00;16.10;;;3.70;99.90;;;;;;5080962;28;20031;-80
2021/12/06 05:23:29;;;;;;;23.85;15.73;;;3.60;99.90;;;;;;5116150;28;20035;-80
2021/12/06 05:25:54;;;;;;;132.35;22.65;;;3.50;99.90;;;;;;5079301;28;20036;-80
2021/12/06 05:28:25;;;;;;;23.65;15.50;;;3.50;99.90;;;;;;5101152;28;20089;-80
2021/12/06 05:30:54;;;;;;;25.80;15.95;;;3.40;99.90;;;;;;5097511;28;20028;-80
2021/12/06 05:33:29;;;;;;;19.20;14.48;;;3.40;99.90;;;;;;5064777;28;20031;-80
2021/12/06 05:35:55;;;;;;;89.72;18.45;;;3.30;99.90;;;;;;5116005;28;20047;-80
2021/12/06 05:38:21;;;;;;;19.75;13.88;;;3.20;99.90;;;;;;5078707;28;20034;-80
2021/12/06 05:40:47;;;;;;;19.77;14.52;;;3.20;99.90;;;;;;5060407;28;20032;-80
2021/12/06 05:43:13;;;;;;;23.23;15.48;;;3.10;99.90;;;;;;5105092;28;20023;-80
2021/12/06 05:45:39;;;;;;;27.80;16.63;;;3.10;99.90;;;;;;5115345;28;20039;-80
2021/12/06 05:48:06;;;;;;;26.92;14.07;;;3.00;99.90;;;;;;5080090;28;20139;-80
2021/12/06 05:50:32;;;;;;;18.70;13.63;;;2.90;99.90;;;;;;5097296;28;20023;-80
2021/12/06 05:52:58;;;;;;;22.38;14.70;;;2.90;99.90;;;;;;5062057;28;20674;-80
2021/12/06 05:55:29;;;;;;;25.45;14.48;;;2.90;99.90;;;;;;5114969;28;20032;-80
2021/12/06 05:58:00;;;;;;;22.35;13.10;;;2.90;99.90;;;;;;5095329;28;20053;-80
2021/12/06 06:00:29;;;;;;;33.80;13.88;;;2.80;99.90;;;;;;5111588;28;20034;-80
2021/12/06 06:02:55;;;;;;;24.35;12.27;;;2.80;99.90;;;;;;5080952;28;20031;-80
2021/12/06 06:05:21;;;;;;;95.57;14.63;;;2.80;99.90;;;;;;5064115;28;20492;-80
2021/12/06 06:07:47;;;;;;;90.15;14.95;;;2.80;99.90;;;;;;5071663;28;20089;-80
2021/12/06 06:10:13;;;;;;;101.70;15.65;;;2.70;99.90;;;;;;5115934;28;20015;-80
2021/12/06 06:12:39;;;;;;;149.55;17.65;;;2.70;99.90;;;;;;5097445;28;20031;-80
2021/12/06 06:15:05;;;;;;;156.65;17.73;;;2.60;99.90;;;;;;5115880;28;20067;-80
2021/12/06 06:17:39;;;;;;;123.03;17.73;;;2.60;99.90;;;;;;5097128;28;20028;-80
2021/12/06 06:20:08;;;;;;;67.43;16.95;;;2.60;99.90;;;;;;5081274;28;20028;-80
2021/12/06 06:22:33;;;;;;;116.55;19.90;;;2.60;99.90;;;;;;5089731;28;20107;-80
2021/12/06 06:24:59;;;;;;;208.38;20.58;;;2.60;99.90;;;;;;5064008;28;20124;-80
2021/12/06 06:27:25;;;;;;;321.05;24.05;;;2.60;99.90;;;;;;5095116;28;20024;-80
2021/12/06 06:29:50;;;;;;;148.35;17.23;;;2.60;99.90;;;;;;5092607;28;20019;-81
2021/12/06 06:32:16;;;;;;;150.82;18.70;;;2.50;99.90;;;;;;5080355;28;20118;-80
2021/12/06 06:34:42;;;;;;;164.88;18.13;;;2.50;99.90;;;;;;5080603;28;20028;-80
2021/12/06 06:37:08;;;;;;;141.13;17.15;;;2.40;99.90;;;;;;5079814;28;20028;-81
2021/12/06 06:39:33;;;;;;;165.90;19.05;;;2.40;99.90;;;;;;5096956;28;20031;-81
2021/12/06 06:41:59;;;;;;;112.28;17.88;;;2.40;99.90;;;;;;5090671;28;20503;-80
2021/12/06 06:44:25;;;;;;;227.75;20.95;;;2.40;99.90;;;;;;5079007;28;20027;-80
2021/12/06 06:46:51;;;;;;;170.80;18.83;;;2.50;99.90;;;;;;5080306;28;20024;-80
2021/12/06 06:49:18;;;;;;;213.73;21.15;;;2.50;99.90;;;;;;5102076;28;20036;-81
2021/12/06 06:51:46;;;;;;;284.42;24.77;;;2.40;99.90;;;;;;5108715;28;20031;-80
2021/12/06 06:54:12;;;;;;;208.30;21.60;;;2.40;99.90;;;;;;5096488;28;20051;-79
2021/12/06 06:56:38;;;;;;;283.00;22.70;;;2.50;99.90;;;;;;5096679;28;20076;-80
2021/12/06 06:59:04;;;;;;;247.00;20.70;;;2.50;99.90;;;;;;5096946;28;20035;-79
2021/12/06 07:01:30;;;;;;;243.02;24.67;;;2.60;99.90;;;;;;5096467;28;20480;-79
2021/12/06 07:03:56;;;;;;;290.45;22.33;;;2.60;99.90;;;;;;5096268;28;20130;-79
2021/12/06 07:06:24;;;;;;;285.17;22.15;;;2.70;99.90;;;;;;5096367;28;20543;-79
2021/12/06 07:08:50;;;;;;;185.25;19.63;;;2.70;99.90;;;;;;5096215;28;20031;-79
2021/12/06 07:11:15;;;;;;;249.98;20.70;;;2.70;99.90;;;;;;5096445;28;20027;-79
2021/12/06 07:13:43;;;;;;;272.30;22.60;;;2.70;99.90;;;;;;5096308;28;20031;-79
2021/12/06 07:16:09;;;;;;;235.40;20.20;;;2.70;99.90;;;;;;5096420;28;20047;-79
2021/12/06 07:18:36;;;;;;;250.43;19.70;;;2.70;99.90;;;;;;5095079;28;20030;-79
2021/12/06 07:21:03;;;;;;;231.10;22.35;;;2.70;99.90;;;;;;5114258;28;20036;-79
2021/12/06 07:23:29;;;;;;;231.32;23.33;;;2.70;99.90;;;;;;5114149;28;20031;-79
2021/12/06 07:25:55;;;;;;;111.90;19.02;;;2.80;99.90;;;;;;5087834;28;20077;-79
2021/12/06 07:28:20;;;;;;;184.40;19.30;;;2.80;99.90;;;;;;5073041;28;20032;-80
2021/12/06 07:30:46;;;;;;;242.40;21.38;;;2.80;99.90;;;;;;5073839;28;20032;-80
2021/12/06 07:33:12;;;;;;;174.55;18.70;;;2.90;99.90;;;;;;5092551;28;20035;-79
2021/12/06 07:35:38;;;;;;;209.68;21.73;;;2.90;99.90;;;;;;5075484;28;20028;-79
2021/12/06 07:38:06;;;;;;;169.25;19.10;;;2.90;99.90;;;;;;5075406;28;20055;-79
2021/12/06 07:40:33;;;;;;;226.63;18.57;;;2.90;99.90;;;;;;5075933;28;20028;-79
2021/12/06 07:42:59;;;;;;;201.82;19.13;;;2.90;99.90;;;;;;5075708;28;20035;-79
2021/12/06 07:45:24;;;;;;;148.50;17.45;;;3.00;99.90;;;;;;5093633;28;20032;-79
2021/12/06 07:47:50;;;;;;;161.35;18.67;;;3.00;99.90;;;;;;5072218;28;20033;-79
2021/12/06 07:50:19;;;;;;;179.18;19.15;;;3.00;99.90;;;;;;5114026;28;20063;-79
2021/12/06 07:52:47;;;;;;;224.73;22.23;;;3.10;99.90;;;;;;5113719;28;20476;-79
2021/12/06 07:55:16;;;;;;;195.02;22.20;;;3.10;99.90;;;;;;5113701;28;20043;-79
2021/12/06 07:57:42;;;;;;;198.00;24.38;;;3.10;99.90;;;;;;5095737;28;20043;-79
2021/12/06 08:00:12;;;;;;;73.10;18.08;;;3.20;99.90;;;;;;5113832;28;20066;-79
2021/12/06 08:02:38;;;;;;;161.65;23.17;;;3.20;99.90;;;;;;5113741;28;20152;-80
2021/12/06 08:05:38;;;;;;;125.70;24.83;;;3.20;99.90;;;;;;5091019;28;20082;-80
2021/12/06 08:08:11;;;;;;;107.78;22.88;;;3.20;99.90;;;;;;5083927;28;20028;-79
2021/12/06 08:10:44;;;;;;;191.20;25.95;;;3.30;99.90;;;;;;5095208;28;20020;-79
2021/12/06 08:13:12;;;;;;;90.43;21.25;;;3.30;99.90;;;;;;5114141;28;20106;-79
2021/12/06 08:15:38;;;;;;;151.73;21.38;;;3.30;99.90;;;;;;5113742;28;20047;-79
2021/12/06 08:18:05;;;;;;;143.85;23.05;;;3.40;99.90;;;;;;5106977;28;20520;-80
2021/12/06 08:20:31;;;;;;;118.68;22.77;;;3.40;99.90;;;;;;5059019;28;20120;-79
2021/12/06 08:22:57;;;;;;;105.93;25.60;;;3.40;99.90;;;;;;5075288;28;20032;-79
2021/12/06 08:25:23;;;;;;;138.13;26.15;;;3.50;99.90;;;;;;5058245;28;20028;-80
2021/12/06 08:27:49;;;;;;;115.80;23.05;;;3.50;99.90;;;;;;5074690;28;20562;-79
2021/12/06 08:30:19;;;;;;;109.95;25.65;;;3.50;99.90;;;;;;5075005;28;20058;-79
2021/12/06 08:32:47;;;;;;;128.65;23.27;;;3.60;99.90;;;;;;5075703;28;20584;-79
2021/12/06 08:35:12;;;;;;;83.75;21.10;;;3.60;99.90;;;;;;5058550;28;20035;-79
2021/12/06 08:37:38;;;;;;;103.60;26.73;;;3.60;99.90;;;;;;5075112;28;20024;-79
2021/12/06 08:40:05;;;;;;;145.85;30.23;;;3.70;99.90;;;;;;5075102;28;20389;-79
2021/12/06 08:42:31;;;;;;;83.53;24.60;;;3.70;99.90;;;;;;5075037;28;20043;-79
2021/12/06 08:44:57;;;;;;;95.07;24.73;;;3.80;99.90;;;;;;5074984;28;20059;-79
2021/12/06 08:47:24;;;;;;;83.22;25.75;;;3.80;99.90;;;;;;5061831;28;20126;-79
2021/12/06 08:49:51;;;;;;;82.38;27.95;;;3.80;99.90;;;;;;5061627;28;20028;-79
2021/12/06 08:52:17;;;;;;;137.07;32.33;;;3.90;99.90;;;;;;5094608;28;20076;-79
2021/12/06 08:54:42;;;;;;;114.75;27.98;;;3.90;99.90;;;;;;5077776;28;20093;-79
2021/12/06 08:57:09;;;;;;;162.27;33.60;;;3.90;99.90;;;;;;5060973;28;20028;-79
2021/12/06 08:59:34;;;;;;;104.28;29.60;;;3.90;99.90;;;;;;5112882;28;20761;-79
2021/12/06 09:02:00;;;;;;;139.65;33.88;;;3.90;99.90;;;;;;5077775;28;20092;-79
2021/12/06 09:04:31;;;;;;;193.15;36.33;;;4.00;99.90;;;;;;5094679;28;20039;-79
2021/12/06 09:06:58;;;;;;;178.52;34.08;;;4.00;99.90;;;;;;5094586;28;20439;-80
2021/12/06 09:09:27;;;;;;;81.90;33.67;;;3.90;99.90;;;;;;5111862;28;20032;-79
2021/12/06 09:11:53;;;;;;;274.88;39.97;;;3.90;99.90;;;;;;5095092;28;20052;-79
2021/12/06 09:14:19;;;;;;;132.43;32.83;;;4.00;99.90;;;;;;5094451;28;20377;-79
2021/12/06 09:16:45;;;;;;;124.88;34.13;;;4.00;99.90;;;;;;5077508;28;20119;-79
2021/12/06 09:19:13;;;;;;;174.40;36.65;;;4.00;99.90;;;;;;5094439;28;20034;-80
2021/12/06 09:21:41;;;;;;;122.88;32.33;;;4.00;99.90;;;;;;5077590;28;20036;-79
2021/12/06 09:24:11;;;;;;;214.73;38.58;;;4.00;99.90;;;;;;5112396;28;20073;-79
2021/12/06 09:26:37;;;;;;;101.72;34.25;;;4.00;99.90;;;;;;5112176;28;20106;-79
2021/12/06 09:29:03;;;;;;;76.28;32.17;;;4.00;99.90;;;;;;5112261;28;20077;-79
2021/12/06 09:31:29;;;;;;;70.47;30.88;;;4.10;99.90;;;;;;5058417;28;20081;-80
2021/12/06 09:33:55;;;;;;;88.57;32.95;;;4.10;99.90;;;;;;5073968;28;20115;-79
2021/12/06 09:36:21;;;;;;;183.80;38.03;;;4.10;99.90;;;;;;5057486;28;20131;-79
2021/12/06 09:38:47;;;;;;;102.97;34.80;;;4.10;99.90;;;;;;5074064;28;20028;-80
2021/12/06 09:41:20;;;;;;;93.00;34.08;;;4.10;99.90;;;;;;5074137;28;20559;-79
2021/12/06 09:43:46;;;;;;;111.25;37.42;;;4.20;99.90;;;;;;5077799;28;20032;-79
2021/12/06 09:46:12;;;;;;;108.07;34.63;;;4.20;99.90;;;;;;5065891;28;20126;-79
2021/12/06 09:48:41;;;;;;;112.20;39.03;;;4.20;99.90;;;;;;5077887;28;20039;-79
2021/12/06 09:51:16;;;;;;;83.40;36.22;;;4.20;99.90;;;;;;5109318;28;20028;-79
2021/12/06 09:53:44;;;;;;;86.40;35.22;;;4.20;99.90;;;;;;5116193;28;20461;-80
2021/12/06 09:56:18;;;;;;;104.82;37.05;;;4.30;99.90;;;;;;5116434;28;20015;-79
2021/12/06 09:58:46;;;;;;;72.22;34.83;;;4.20;99.90;;;;;;5116467;28;20024;-79
2021/12/06 10:01:21;;;;;;;74.20;35.75;;;4.30;99.90;;;;;;5090612;28;20810;-79
2021/12/06 10:03:48;;;;;;;86.68;38.97;;;4.30;99.90;;;;;;5077529;28;20024;-79
2021/12/06 10:06:18;;;;;;;74.93;36.15;;;4.30;99.90;;;;;;5077872;28;20392;-79
2021/12/06 10:08:45;;;;;;;93.93;39.15;;;4.40;99.90;;;;;;5061200;28;20389;-79
2021/12/06 10:11:15;;;;;;;78.88;36.38;;;4.40;99.90;;;;;;5095733;28;20064;-80
2021/12/06 10:13:41;;;;;;;90.07;38.75;;;4.40;99.90;;;;;;5096092;28;20115;-79
2021/12/06 10:16:08;;;;;;;183.73;42.40;;;4.40;99.90;;;;;;5061336;28;20711;-79
2021/12/06 10:18:34;;;;;;;85.25;37.50;;;4.50;99.90;;;;;;5077634;28;20123;-79
2021/12/06 10:21:01;;;;;;;75.18;35.83;;;4.50;99.90;;;;;;5060908;28;20062;-80
2021/12/06 10:23:27;;;;;;;79.25;38.47;;;4.50;99.90;;;;;;5103759;28;20372;-79
2021/12/06 10:25:55;;;;;;;79.85;39.83;;;4.60;99.90;;;;;;5080806;28;20028;-80
2021/12/06 10:28:25;;;;;;;80.38;37.10;;;4.60;99.90;;;;;;5080772;28;20536;-80
2021/12/06 10:30:55;;;;;;;76.68;38.45;;;4.60;99.90;;;;;;5115797;28;20061;-80
2021/12/06 10:33:26;;;;;;;81.38;39.03;;;4.60;99.90;;;;;;5097838;28;20111;-80
2021/12/06 10:35:55;;;;;;;76.82;37.47;;;4.60;99.90;;;;;;5115858;28;20018;-79
2021/12/06 10:38:42;;;;;;;73.95;37.05;;;4.50;99.90;;;;;;5115689;28;20027;-80
2021/12/06 10:41:12;;;;;;;75.72;36.13;;;4.50;99.90;;;;;;5096991;28;20138;-80
2021/12/06 10:43:38;;;;;;;71.32;35.08;;;4.60;99.90;;;;;;5115251;28;20111;-80
2021/12/06 10:46:07;;;;;;;78.70;35.60;;;4.60;99.90;;;;;;5115159;28;20499;-80
2021/12/06 10:48:36;;;;;;;83.43;35.53;;;4.60;99.90;;;;;;5114920;28;20518;-79
2021/12/06 10:51:29;;;;;;;121.22;38.30;;;4.60;99.90;;;;;;5096813;28;20065;-79
2021/12/06 10:54:06;;;;;;;77.85;34.65;;;4.70;99.90;;;;;;5107898;28;20036;-80
2021/12/06 10:56:43;;;;;;;98.50;36.05;;;4.60;99.90;;;;;;5114168;28;20042;-80
2021/12/06 10:59:17;;;;;;;75.55;33.15;;;4.60;99.90;;;;;;5094701;28;20027;-79
2021/12/06 11:01:45;;;;;;;70.28;33.78;;;4.60;99.90;;;;;;5114410;28;20072;-79
2021/12/06 11:04:16;;;;;;;81.95;34.10;;;4.50;99.90;;;;;;5077305;28;20051;-79
2021/12/06 11:06:46;;;;;;;91.45;34.83;;;4.60;99.90;;;;;;5094311;28;20035;-80
2021/12/06 11:09:24;;;;;;;81.45;34.42;;;4.60;99.90;;;;;;5076097;28;20105;-80
2021/12/06 11:11:54;;;;;;;81.30;34.60;;;4.50;99.90;;;;;;5095894;28;20019;-80
2021/12/06 11:14:22;;;;;;;85.40;33.20;;;4.60;99.90;;;;;;5096790;28;20035;-81
2021/12/06 11:17:12;;;;;;;94.73;34.57;;;4.60;99.90;;;;;;5093319;28;20027;-81
2021/12/06 11:19:38;;;;;;;99.05;37.17;;;4.60;99.90;;;;;;5078613;28;20284;-80
2021/12/06 11:22:11;;;;;;;77.72;34.58;;;4.60;99.90;;;;;;5076812;28;20136;-80
2021/12/06 11:24:43;;;;;;;129.57;36.55;;;4.50;99.90;;;;;;5087890;28;20023;-81
2021/12/06 11:27:10;;;;;;;95.03;36.17;;;4.50;99.90;;;;;;5106354;28;20038;-81
2021/12/06 11:29:38;;;;;;;182.38;42.28;;;4.50;99.90;;;;;;5095791;28;20118;-80
2021/12/06 11:32:11;;;;;;;125.97;39.45;;;4.60;99.90;;;;;;5108082;28;20039;-80
2021/12/06 11:34:43;;;;;;;95.20;37.70;;;4.50;99.90;;;;;;5106401;28;20028;-80
2021/12/06 11:37:19;;;;;;;118.43;37.88;;;4.50;99.90;;;;;;5091813;28;20024;-81
2021/12/06 11:39:47;;;;;;;90.82;38.33;;;4.60;99.90;;;;;;5087416;28;20480;-81
2021/12/06 11:42:14;;;;;;;95.95;37.83;;;4.50;99.90;;;;;;5095088;28;20099;-80
2021/12/06 11:44:42;;;;;;;101.90;39.75;;;4.60;99.90;;;;;;5059128;28;20028;-80
2021/12/06 11:47:11;;;;;;;96.75;36.38;;;4.60;99.90;;;;;;5089401;28;20058;-80
2021/12/06 11:49:47;;;;;;;94.68;38.10;;;4.60;99.90;;;;;;5113937;28;20384;-80
2021/12/06 11:52:22;;;;;;;88.53;37.00;;;4.60;99.90;;;;;;5095543;28;20115;-79
2021/12/06 11:55:04;;;;;;;90.93;37.47;;;4.60;99.90;;;;;;5112726;28;20492;-79
2021/12/06 11:57:33;;;;;;;86.60;36.55;;;4.60;99.90;;;;;;5113302;28;20041;-79
2021/12/06 12:00:14;;;;;;;65.35;31.45;;;4.70;99.90;;;;;;5113308;28;20384;-79
2021/12/06 12:02:52;;;;;;;60.92;29.05;;;4.70;99.90;;;;;;5095432;28;20031;-79
2021/12/06 12:05:38;;;;;;;65.95;30.40;;;4.60;99.90;;;;;;5095106;28;20034;-80
2021/12/06 12:08:08;;;;;;;65.97;28.85;;;4.70;99.90;;;;;;5113916;28;20387;-79
2021/12/06 12:10:44;;;;;;;55.42;27.17;;;4.70;99.90;;;;;;5095156;28;20024;-79
2021/12/06 12:13:13;;;;;;;61.88;28.33;;;4.70;99.90;;;;;;5095282;28;20114;-79
2021/12/06 12:15:39;;;;;;;62.65;29.35;;;4.70;99.90;;;;;;5095126;28;20024;-79
2021/12/06 12:18:05;;;;;;;62.13;29.38;;;4.80;99.90;;;;;;5113571;28;20031;-79
2021/12/06 12:20:31;;;;;;;66.00;28.92;;;4.70;99.90;;;;;;5078518;28;20032;-79
2021/12/06 12:23:02;;;;;;;68.80;31.50;;;4.70;99.90;;;;;;5095179;28;20100;-79
2021/12/06 12:25:33;;;;;;;68.45;32.33;;;4.70;99.90;;;;;;5095796;28;20055;-79
2021/12/06 12:30:33;;;;;;;65.15;30.88;;;4.90;99.90;;;;;;5113176;28;20026;-79
2021/12/06 12:33:05;;;;;;;53.53;27.23;;;4.90;99.90;;;;;;5112783;28;20016;-80
2021/12/06 12:35:32;;;;;;;52.88;26.15;;;4.90;99.90;;;;;;5113324;28;20464;-80
2021/12/06 12:37:59;;;;;;;50.90;26.95;;;5.00;99.90;;;;;;5113268;28;20051;-79
2021/12/06 12:40:36;;;;;;;49.78;26.05;;;5.00;99.90;;;;;;5078342;28;20476;-79
2021/12/06 12:43:09;;;;;;;40.47;22.48;;;5.00;99.90;;;;;;5113419;28;20045;-79
2021/12/06 12:45:38;;;;;;;42.25;22.95;;;5.00;99.90;;;;;;5113208;28;20011;-79
2021/12/06 12:48:05;;;;;;;41.33;22.77;;;5.10;99.90;;;;;;5113478;28;20387;-79
2021/12/06 12:50:30;;;;;;;39.67;22.25;;;5.10;99.90;;;;;;5095241;28;20031;-79
2021/12/06 12:53:04;;;;;;;37.40;22.40;;;5.20;99.90;;;;;;5095190;28;20611;-79
2021/12/06 12:55:42;;;;;;;35.58;21.88;;;5.20;99.90;;;;;;5068414;28;20041;-79
2021/12/06 12:58:11;;;;;;;35.38;21.50;;;5.30;99.90;;;;;;5053713;28;20060;-79
2021/12/06 13:00:51;;;;;;;34.10;20.65;;;5.40;99.90;;;;;;5071396;28;20156;-79